sensor_id;sensor_type;location;lat;lon;timestamp;temperature;humidity
55828;DHT22;41758;51.992;5.890;2023-05-07T00:02:25;19.90;76.40
55828;DHT22;41758;51.992;5.890;2023-05-07T00:04:51;19.90;76.40
55828;DHT22;41758;51.992;5.890;2023-05-07T00:07:17;19.90;76.40
55828;DHT22;41758;51.992;5.890;2023-05-07T00:09:43;19.90;76.40
55828;DHT22;41758;51.992;5.890;2023-05-07T00:12:10;19.90;76.40
55828;DHT22;41758;51.992;5.890;2023-05-07T00:14:36;19.90;76.50
55828;DHT22;41758;51.992;5.890;2023-05-07T00:17:01;19.90;76.50
55828;DHT22;41758;51.992;5.890;2023-05-07T00:19:27;20.00;76.50
55828;DHT22;41758;51.992;5.890;2023-05-07T00:21:53;19.90;76.50
55828;DHT22;41758;51.992;5.890;2023-05-07T00:24:19;19.90;76.40
55828;DHT22;41758;51.992;5.890;2023-05-07T00:26:45;19.90;76.40
55828;DHT22;41758;51.992;5.890;2023-05-07T00:29:11;19.90;76.30
55828;DHT22;41758;51.992;5.890;2023-05-07T00:31:36;19.90;76.30
55828;DHT22;41758;51.992;5.890;2023-05-07T00:34:02;19.90;76.30
55828;DHT22;41758;51.992;5.890;2023-05-07T00:36:28;19.80;76.20
55828;DHT22;41758;51.992;5.890;2023-05-07T00:38:56;19.90;76.20
55828;DHT22;41758;51.992;5.890;2023-05-07T00:41:22;19.80;76.20
55828;DHT22;41758;51.992;5.890;2023-05-07T00:43:48;19.80;76.20
55828;DHT22;41758;51.992;5.890;2023-05-07T00:46:14;19.80;76.10
55828;DHT22;41758;51.992;5.890;2023-05-07T00:48:41;19.80;76.10
55828;DHT22;41758;51.992;5.890;2023-05-07T00:51:07;19.80;76.20
55828;DHT22;41758;51.992;5.890;2023-05-07T00:53:33;19.80;76.10
55828;DHT22;41758;51.992;5.890;2023-05-07T00:56:00;19.80;76.10
55828;DHT22;41758;51.992;5.890;2023-05-07T00:58:26;19.80;76.20
55828;DHT22;41758;51.992;5.890;2023-05-07T01:00:52;19.80;76.10
55828;DHT22;41758;51.992;5.890;2023-05-07T01:03:17;19.80;76.10
55828;DHT22;41758;51.992;5.890;2023-05-07T01:05:45;19.80;76.10
55828;DHT22;41758;51.992;5.890;2023-05-07T01:08:12;19.80;76.00
55828;DHT22;41758;51.992;5.890;2023-05-07T01:10:40;19.70;76.00
55828;DHT22;41758;51.992;5.890;2023-05-07T01:13:09;19.70;75.90
55828;DHT22;41758;51.992;5.890;2023-05-07T01:15:36;19.70;75.90
55828;DHT22;41758;51.992;5.890;2023-05-07T01:18:02;19.60;75.90
55828;DHT22;41758;51.992;5.890;2023-05-07T01:20:33;19.60;75.80
55828;DHT22;41758;51.992;5.890;2023-05-07T01:23:00;19.60;75.80
55828;DHT22;41758;51.992;5.890;2023-05-07T01:25:26;19.60;75.90
55828;DHT22;41758;51.992;5.890;2023-05-07T01:27:55;19.60;75.90
55828;DHT22;41758;51.992;5.890;2023-05-07T01:30:25;19.60;75.90
55828;DHT22;41758;51.992;5.890;2023-05-07T01:32:58;19.50;75.80
55828;DHT22;41758;51.992;5.890;2023-05-07T01:35:32;19.50;75.90
55828;DHT22;41758;51.992;5.890;2023-05-07T01:38:00;19.50;75.90
55828;DHT22;41758;51.992;5.890;2023-05-07T01:40:27;19.50;75.90
55828;DHT22;41758;51.992;5.890;2023-05-07T01:42:53;19.50;75.90
55828;DHT22;41758;51.992;5.890;2023-05-07T01:45:19;19.50;75.90
55828;DHT22;41758;51.992;5.890;2023-05-07T01:47:45;19.50;75.90
55828;DHT22;41758;51.992;5.890;2023-05-07T01:50:12;19.50;75.90
55828;DHT22;41758;51.992;5.890;2023-05-07T01:52:38;19.50;75.90
55828;DHT22;41758;51.992;5.890;2023-05-07T01:55:05;19.50;75.90
55828;DHT22;41758;51.992;5.890;2023-05-07T01:57:31;19.50;76.00
55828;DHT22;41758;51.992;5.890;2023-05-07T01:59:57;19.60;76.00
55828;DHT22;41758;51.992;5.890;2023-05-07T02:02:22;19.60;76.00
55828;DHT22;41758;51.992;5.890;2023-05-07T02:04:49;19.60;76.10
55828;DHT22;41758;51.992;5.890;2023-05-07T02:07:16;19.60;76.00
55828;DHT22;41758;51.992;5.890;2023-05-07T02:09:42;19.60;76.00
55828;DHT22;41758;51.992;5.890;2023-05-07T02:12:08;19.60;76.00
55828;DHT22;41758;51.992;5.890;2023-05-07T02:14:33;19.60;76.00
55828;DHT22;41758;51.992;5.890;2023-05-07T02:16:59;19.60;76.00
55828;DHT22;41758;51.992;5.890;2023-05-07T02:19:25;19.60;75.90
55828;DHT22;41758;51.992;5.890;2023-05-07T02:21:51;19.60;75.90
55828;DHT22;41758;51.992;5.890;2023-05-07T02:24:16;19.60;75.90
55828;DHT22;41758;51.992;5.890;2023-05-07T02:26:42;19.60;75.80
55828;DHT22;41758;51.992;5.890;2023-05-07T02:29:08;19.60;75.90
55828;DHT22;41758;51.992;5.890;2023-05-07T02:31:33;19.70;75.90
55828;DHT22;41758;51.992;5.890;2023-05-07T02:34:00;19.70;75.90
55828;DHT22;41758;51.992;5.890;2023-05-07T02:36:26;19.70;75.90
55828;DHT22;41758;51.992;5.890;2023-05-07T02:39:04;19.70;75.90
55828;DHT22;41758;51.992;5.890;2023-05-07T02:41:29;19.70;75.90
55828;DHT22;41758;51.992;5.890;2023-05-07T02:43:55;19.70;75.90
55828;DHT22;41758;51.992;5.890;2023-05-07T02:46:21;19.70;75.80
55828;DHT22;41758;51.992;5.890;2023-05-07T02:48:53;19.70;75.70
55828;DHT22;41758;51.992;5.890;2023-05-07T02:51:22;19.70;75.70
55828;DHT22;41758;51.992;5.890;2023-05-07T02:53:49;19.70;75.70
55828;DHT22;41758;51.992;5.890;2023-05-07T02:56:15;19.70;75.60
55828;DHT22;41758;51.992;5.890;2023-05-07T02:58:40;19.60;75.60
55828;DHT22;41758;51.992;5.890;2023-05-07T03:01:08;19.60;75.60
55828;DHT22;41758;51.992;5.890;2023-05-07T03:03:41;19.60;75.60
55828;DHT22;41758;51.992;5.890;2023-05-07T03:06:07;19.60;75.60
55828;DHT22;41758;51.992;5.890;2023-05-07T03:08:33;19.60;75.60
55828;DHT22;41758;51.992;5.890;2023-05-07T03:10:58;19.60;75.60
55828;DHT22;41758;51.992;5.890;2023-05-07T03:13:24;19.60;75.60
55828;DHT22;41758;51.992;5.890;2023-05-07T03:15:51;19.60;75.60
55828;DHT22;41758;51.992;5.890;2023-05-07T03:18:16;19.60;75.60
55828;DHT22;41758;51.992;5.890;2023-05-07T03:20:42;19.60;75.50
55828;DHT22;41758;51.992;5.890;2023-05-07T03:23:08;19.60;75.50
55828;DHT22;41758;51.992;5.890;2023-05-07T03:25:33;19.60;75.50
55828;DHT22;41758;51.992;5.890;2023-05-07T03:27:59;19.50;75.50
55828;DHT22;41758;51.992;5.890;2023-05-07T03:30:33;19.60;75.50
55828;DHT22;41758;51.992;5.890;2023-05-07T03:32:58;19.50;75.40
55828;DHT22;41758;51.992;5.890;2023-05-07T03:35:24;19.50;75.40
55828;DHT22;41758;51.992;5.890;2023-05-07T03:37:50;19.50;75.50
55828;DHT22;41758;51.992;5.890;2023-05-07T03:40:17;19.50;75.50
55828;DHT22;41758;51.992;5.890;2023-05-07T03:42:47;19.40;75.50
55828;DHT22;41758;51.992;5.890;2023-05-07T03:45:14;19.40;75.50
55828;DHT22;41758;51.992;5.890;2023-05-07T03:47:45;19.40;75.50
55828;DHT22;41758;51.992;5.890;2023-05-07T03:50:15;19.40;75.50
55828;DHT22;41758;51.992;5.890;2023-05-07T03:52:40;19.40;75.50
55828;DHT22;41758;51.992;5.890;2023-05-07T03:55:08;19.40;75.50
55828;DHT22;41758;51.992;5.890;2023-05-07T03:57:36;19.40;75.50
55828;DHT22;41758;51.992;5.890;2023-05-07T04:00:02;19.40;75.50
55828;DHT22;41758;51.992;5.890;2023-05-07T04:02:35;19.40;75.50
55828;DHT22;41758;51.992;5.890;2023-05-07T04:05:02;19.40;75.50
55828;DHT22;41758;51.992;5.890;2023-05-07T04:07:28;19.40;75.50
55828;DHT22;41758;51.992;5.890;2023-05-07T04:09:54;19.40;75.50
55828;DHT22;41758;51.992;5.890;2023-05-07T04:12:20;19.40;75.50
55828;DHT22;41758;51.992;5.890;2023-05-07T04:14:47;19.40;75.50
55828;DHT22;41758;51.992;5.890;2023-05-07T04:17:13;19.40;75.50
55828;DHT22;41758;51.992;5.890;2023-05-07T04:19:39;19.40;75.60
55828;DHT22;41758;51.992;5.890;2023-05-07T04:22:05;19.40;75.60
55828;DHT22;41758;51.992;5.890;2023-05-07T04:24:32;19.40;75.60
55828;DHT22;41758;51.992;5.890;2023-05-07T04:26:59;19.40;75.60
55828;DHT22;41758;51.992;5.890;2023-05-07T04:29:25;19.40;75.60
55828;DHT22;41758;51.992;5.890;2023-05-07T04:31:51;19.40;75.70
55828;DHT22;41758;51.992;5.890;2023-05-07T04:34:17;19.40;75.70
55828;DHT22;41758;51.992;5.890;2023-05-07T04:36:43;19.50;75.70
55828;DHT22;41758;51.992;5.890;2023-05-07T04:39:11;19.50;75.70
55828;DHT22;41758;51.992;5.890;2023-05-07T04:41:38;19.50;75.70
55828;DHT22;41758;51.992;5.890;2023-05-07T04:44:05;19.50;75.70
55828;DHT22;41758;51.992;5.890;2023-05-07T04:46:32;19.50;75.70
55828;DHT22;41758;51.992;5.890;2023-05-07T04:48:58;19.50;75.60
55828;DHT22;41758;51.992;5.890;2023-05-07T04:51:24;19.50;75.60
55828;DHT22;41758;51.992;5.890;2023-05-07T04:53:50;19.50;75.60
55828;DHT22;41758;51.992;5.890;2023-05-07T04:56:16;19.50;75.50
55828;DHT22;41758;51.992;5.890;2023-05-07T04:58:44;19.50;75.50
55828;DHT22;41758;51.992;5.890;2023-05-07T05:01:11;19.50;75.50
55828;DHT22;41758;51.992;5.890;2023-05-07T05:03:37;19.50;75.60
55828;DHT22;41758;51.992;5.890;2023-05-07T05:06:05;19.50;75.50
55828;DHT22;41758;51.992;5.890;2023-05-07T05:08:33;19.50;75.60
55828;DHT22;41758;51.992;5.890;2023-05-07T05:11:02;19.50;75.60
55828;DHT22;41758;51.992;5.890;2023-05-07T05:13:28;19.50;75.60
55828;DHT22;41758;51.992;5.890;2023-05-07T05:15:54;19.60;75.60
55828;DHT22;41758;51.992;5.890;2023-05-07T05:18:19;19.50;75.60
55828;DHT22;41758;51.992;5.890;2023-05-07T05:20:46;19.60;75.60
55828;DHT22;41758;51.992;5.890;2023-05-07T05:23:12;19.50;75.50
55828;DHT22;41758;51.992;5.890;2023-05-07T05:25:38;19.50;75.50
55828;DHT22;41758;51.992;5.890;2023-05-07T05:28:05;19.50;75.60
55828;DHT22;41758;51.992;5.890;2023-05-07T05:30:33;19.50;75.50
55828;DHT22;41758;51.992;5.890;2023-05-07T05:32:59;19.50;75.60
55828;DHT22;41758;51.992;5.890;2023-05-07T05:35:26;19.60;75.60
55828;DHT22;41758;51.992;5.890;2023-05-07T05:37:52;19.60;75.60
55828;DHT22;41758;51.992;5.890;2023-05-07T05:40:18;19.60;75.60
55828;DHT22;41758;51.992;5.890;2023-05-07T05:42:44;19.60;75.60
55828;DHT22;41758;51.992;5.890;2023-05-07T05:45:11;19.60;75.60
55828;DHT22;41758;51.992;5.890;2023-05-07T05:47:38;19.60;75.60
55828;DHT22;41758;51.992;5.890;2023-05-07T05:50:06;19.60;75.60
55828;DHT22;41758;51.992;5.890;2023-05-07T05:52:32;19.60;75.70
55828;DHT22;41758;51.992;5.890;2023-05-07T05:54:58;19.70;75.70
55828;DHT22;41758;51.992;5.890;2023-05-07T05:57:25;19.70;75.70
55828;DHT22;41758;51.992;5.890;2023-05-07T05:59:51;19.70;75.70
55828;DHT22;41758;51.992;5.890;2023-05-07T06:02:17;19.70;75.70
55828;DHT22;41758;51.992;5.890;2023-05-07T06:04:44;19.80;75.70
55828;DHT22;41758;51.992;5.890;2023-05-07T06:07:12;19.80;75.70
55828;DHT22;41758;51.992;5.890;2023-05-07T06:09:38;19.80;75.70
55828;DHT22;41758;51.992;5.890;2023-05-07T06:12:04;19.80;75.70
55828;DHT22;41758;51.992;5.890;2023-05-07T06:14:31;19.80;75.70
55828;DHT22;41758;51.992;5.890;2023-05-07T06:16:57;19.80;75.70
55828;DHT22;41758;51.992;5.890;2023-05-07T06:19:23;19.80;75.70
55828;DHT22;41758;51.992;5.890;2023-05-07T06:21:50;19.90;75.70
55828;DHT22;41758;51.992;5.890;2023-05-07T06:24:16;19.80;75.70
55828;DHT22;41758;51.992;5.890;2023-05-07T06:26:42;19.90;75.70
55828;DHT22;41758;51.992;5.890;2023-05-07T06:29:08;19.90;75.70
55828;DHT22;41758;51.992;5.890;2023-05-07T06:31:34;19.90;75.80
55828;DHT22;41758;51.992;5.890;2023-05-07T06:34:06;20.00;75.70
55828;DHT22;41758;51.992;5.890;2023-05-07T06:36:35;20.00;75.70
55828;DHT22;41758;51.992;5.890;2023-05-07T06:39:08;20.00;75.80
55828;DHT22;41758;51.992;5.890;2023-05-07T06:41:35;20.10;75.80
55828;DHT22;41758;51.992;5.890;2023-05-07T06:44:06;20.10;75.90
55828;DHT22;41758;51.992;5.890;2023-05-07T06:46:38;20.10;75.90
55828;DHT22;41758;51.992;5.890;2023-05-07T06:49:05;20.20;75.90
55828;DHT22;41758;51.992;5.890;2023-05-07T06:51:31;20.20;75.90
55828;DHT22;41758;51.992;5.890;2023-05-07T06:54:01;20.30;75.90
55828;DHT22;41758;51.992;5.890;2023-05-07T06:56:27;20.20;75.80
55828;DHT22;41758;51.992;5.890;2023-05-07T06:58:53;20.30;75.80
55828;DHT22;41758;51.992;5.890;2023-05-07T07:01:19;20.30;75.80
55828;DHT22;41758;51.992;5.890;2023-05-07T07:03:45;20.30;75.80
55828;DHT22;41758;51.992;5.890;2023-05-07T07:06:11;20.30;75.80
55828;DHT22;41758;51.992;5.890;2023-05-07T07:08:37;20.40;75.80
55828;DHT22;41758;51.992;5.890;2023-05-07T07:11:05;20.30;75.70
55828;DHT22;41758;51.992;5.890;2023-05-07T07:13:31;20.30;75.70
55828;DHT22;41758;51.992;5.890;2023-05-07T07:15:57;20.40;75.80
55828;DHT22;41758;51.992;5.890;2023-05-07T07:18:23;20.40;75.80
55828;DHT22;41758;51.992;5.890;2023-05-07T07:20:49;20.40;75.80
55828;DHT22;41758;51.992;5.890;2023-05-07T07:23:15;20.40;75.90
55828;DHT22;41758;51.992;5.890;2023-05-07T07:25:41;20.50;75.90
55828;DHT22;41758;51.992;5.890;2023-05-07T07:28:07;20.50;75.90
55828;DHT22;41758;51.992;5.890;2023-05-07T07:30:36;20.60;75.90
55828;DHT22;41758;51.992;5.890;2023-05-07T07:33:01;20.60;75.80
55828;DHT22;41758;51.992;5.890;2023-05-07T07:35:31;20.50;75.80
55828;DHT22;41758;51.992;5.890;2023-05-07T07:37:57;20.60;75.90
55828;DHT22;41758;51.992;5.890;2023-05-07T07:40:24;20.60;75.90
55828;DHT22;41758;51.992;5.890;2023-05-07T07:42:51;20.60;75.90
55828;DHT22;41758;51.992;5.890;2023-05-07T07:45:17;20.70;75.90
55828;DHT22;41758;51.992;5.890;2023-05-07T07:47:46;20.70;75.80
55828;DHT22;41758;51.992;5.890;2023-05-07T07:50:12;20.80;75.80
55828;DHT22;41758;51.992;5.890;2023-05-07T07:52:39;20.80;75.90
55828;DHT22;41758;51.992;5.890;2023-05-07T07:55:06;20.90;76.00
55828;DHT22;41758;51.992;5.890;2023-05-07T07:57:33;20.80;75.90
55828;DHT22;41758;51.992;5.890;2023-05-07T07:59:59;20.90;76.00
55828;DHT22;41758;51.992;5.890;2023-05-07T08:02:26;20.90;76.10
55828;DHT22;41758;51.992;5.890;2023-05-07T08:04:51;21.00;76.10
55828;DHT22;41758;51.992;5.890;2023-05-07T08:07:17;21.10;76.10
55828;DHT22;41758;51.992;5.890;2023-05-07T08:09:47;21.10;75.90
55828;DHT22;41758;51.992;5.890;2023-05-07T08:12:14;21.00;75.90
55828;DHT22;41758;51.992;5.890;2023-05-07T08:14:41;21.10;76.00
55828;DHT22;41758;51.992;5.890;2023-05-07T08:17:07;21.10;76.10
55828;DHT22;41758;51.992;5.890;2023-05-07T08:19:35;21.20;76.00
55828;DHT22;41758;51.992;5.890;2023-05-07T08:22:02;21.20;75.90
55828;DHT22;41758;51.992;5.890;2023-05-07T08:24:28;21.20;75.90
55828;DHT22;41758;51.992;5.890;2023-05-07T08:26:54;21.20;75.90
55828;DHT22;41758;51.992;5.890;2023-05-07T08:29:20;21.20;75.80
55828;DHT22;41758;51.992;5.890;2023-05-07T08:31:46;21.20;75.80
55828;DHT22;41758;51.992;5.890;2023-05-07T08:34:12;21.20;75.80
55828;DHT22;41758;51.992;5.890;2023-05-07T08:36:42;21.20;75.80
55828;DHT22;41758;51.992;5.890;2023-05-07T08:39:09;21.30;75.80
55828;DHT22;41758;51.992;5.890;2023-05-07T08:41:35;21.30;75.90
55828;DHT22;41758;51.992;5.890;2023-05-07T08:44:03;21.30;76.10
55828;DHT22;41758;51.992;5.890;2023-05-07T08:46:31;21.40;76.10
55828;DHT22;41758;51.992;5.890;2023-05-07T08:48:58;21.40;76.20
55828;DHT22;41758;51.992;5.890;2023-05-07T08:51:24;21.50;76.10
55828;DHT22;41758;51.992;5.890;2023-05-07T08:53:50;21.50;76.10
55828;DHT22;41758;51.992;5.890;2023-05-07T08:56:22;21.60;76.20
55828;DHT22;41758;51.992;5.890;2023-05-07T08:58:48;21.70;76.20
55828;DHT22;41758;51.992;5.890;2023-05-07T09:01:15;21.70;76.20
55828;DHT22;41758;51.992;5.890;2023-05-07T09:03:46;21.80;76.10
55828;DHT22;41758;51.992;5.890;2023-05-07T09:06:13;21.80;76.10
55828;DHT22;41758;51.992;5.890;2023-05-07T09:08:39;21.80;76.00
55828;DHT22;41758;51.992;5.890;2023-05-07T09:11:06;21.80;75.90
55828;DHT22;41758;51.992;5.890;2023-05-07T09:13:32;21.80;75.90
55828;DHT22;41758;51.992;5.890;2023-05-07T09:16:10;21.90;76.00
55828;DHT22;41758;51.992;5.890;2023-05-07T09:18:43;21.90;76.10
55828;DHT22;41758;51.992;5.890;2023-05-07T09:21:14;21.90;76.20
55828;DHT22;41758;51.992;5.890;2023-05-07T09:23:41;22.00;76.20
55828;DHT22;41758;51.992;5.890;2023-05-07T09:26:07;22.10;76.30
55828;DHT22;41758;51.992;5.890;2023-05-07T09:28:40;22.10;76.40
55828;DHT22;41758;51.992;5.890;2023-05-07T09:31:08;22.20;76.50
55828;DHT22;41758;51.992;5.890;2023-05-07T09:33:34;22.30;76.50
55828;DHT22;41758;51.992;5.890;2023-05-07T09:36:04;22.40;76.40
55828;DHT22;41758;51.992;5.890;2023-05-07T09:38:32;22.40;76.40
55828;DHT22;41758;51.992;5.890;2023-05-07T09:41:07;22.50;76.50
55828;DHT22;41758;51.992;5.890;2023-05-07T09:43:39;22.60;76.50
55828;DHT22;41758;51.992;5.890;2023-05-07T09:46:14;22.70;76.60
55828;DHT22;41758;51.992;5.890;2023-05-07T09:48:46;22.70;76.60
55828;DHT22;41758;51.992;5.890;2023-05-07T09:51:25;22.80;76.70
55828;DHT22;41758;51.992;5.890;2023-05-07T09:53:57;22.90;76.60
55828;DHT22;41758;51.992;5.890;2023-05-07T09:56:24;23.00;76.50
55828;DHT22;41758;51.992;5.890;2023-05-07T09:58:52;23.00;76.50
55828;DHT22;41758;51.992;5.890;2023-05-07T10:01:20;23.10;76.60
55828;DHT22;41758;51.992;5.890;2023-05-07T10:03:49;23.20;76.70
55828;DHT22;41758;51.992;5.890;2023-05-07T10:06:15;23.30;76.80
55828;DHT22;41758;51.992;5.890;2023-05-07T10:08:43;23.30;76.80
55828;DHT22;41758;51.992;5.890;2023-05-07T10:11:09;23.40;76.80
55828;DHT22;41758;51.992;5.890;2023-05-07T10:13:35;23.60;76.80
55828;DHT22;41758;51.992;5.890;2023-05-07T10:16:06;23.60;76.70
55828;DHT22;41758;51.992;5.890;2023-05-07T10:18:38;23.60;76.50
55828;DHT22;41758;51.992;5.890;2023-05-07T10:23:40;23.80;76.50
55828;DHT22;41758;51.992;5.890;2023-05-07T10:26:08;23.80;76.40
55828;DHT22;41758;51.992;5.890;2023-05-07T10:28:42;23.80;76.40
55828;DHT22;41758;51.992;5.890;2023-05-07T10:33:48;24.00;76.80
55828;DHT22;41758;51.992;5.890;2023-05-07T10:36:18;24.00;76.90
55828;DHT22;41758;51.992;5.890;2023-05-07T10:38:44;24.10;77.00
55828;DHT22;41758;51.992;5.890;2023-05-07T10:41:10;24.30;77.10
55828;DHT22;41758;51.992;5.890;2023-05-07T10:43:40;24.40;77.40
55828;DHT22;41758;51.992;5.890;2023-05-07T10:46:16;24.50;77.50
55828;DHT22;41758;51.992;5.890;2023-05-07T10:51:36;24.90;77.70
55828;DHT22;41758;51.992;5.890;2023-05-07T10:54:25;25.00;77.60
55828;DHT22;41758;51.992;5.890;2023-05-07T10:57:43;25.20;77.50
55828;DHT22;41758;51.992;5.890;2023-05-07T11:00:41;25.30;77.40
55828;DHT22;41758;51.992;5.890;2023-05-07T11:03:12;25.40;77.40
55828;DHT22;41758;51.992;5.890;2023-05-07T11:09:05;25.60;77.30
55828;DHT22;41758;51.992;5.890;2023-05-07T11:11:50;25.70;77.20
55828;DHT22;41758;51.992;5.890;2023-05-07T11:14:42;25.80;77.30
55828;DHT22;41758;51.992;5.890;2023-05-07T11:17:13;25.80;77.30
55828;DHT22;41758;51.992;5.890;2023-05-07T11:19:55;25.80;77.10
55828;DHT22;41758;51.992;5.890;2023-05-07T11:25:19;25.90;77.20
55828;DHT22;41758;51.992;5.890;2023-05-07T11:27:49;25.90;77.30
55828;DHT22;41758;51.992;5.890;2023-05-07T11:30:18;25.80;77.10
55828;DHT22;41758;51.992;5.890;2023-05-07T11:32:47;25.90;77.50
55828;DHT22;41758;51.992;5.890;2023-05-07T11:35:15;25.90;77.60
55828;DHT22;41758;51.992;5.890;2023-05-07T11:37:44;25.90;77.90
55828;DHT22;41758;51.992;5.890;2023-05-07T11:40:11;25.90;78.10
55828;DHT22;41758;51.992;5.890;2023-05-07T11:42:38;25.90;78.40
55828;DHT22;41758;51.992;5.890;2023-05-07T11:45:05;25.90;78.80
55828;DHT22;41758;51.992;5.890;2023-05-07T11:47:32;25.90;79.10
55828;DHT22;41758;51.992;5.890;2023-05-07T11:50:03;25.90;79.30
55828;DHT22;41758;51.992;5.890;2023-05-07T11:52:29;25.90;79.60
55828;DHT22;41758;51.992;5.890;2023-05-07T11:54:56;25.90;79.80
55828;DHT22;41758;51.992;5.890;2023-05-07T11:57:23;25.90;79.90
55828;DHT22;41758;51.992;5.890;2023-05-07T11:59:53;25.90;80.00
55828;DHT22;41758;51.992;5.890;2023-05-07T12:02:19;25.90;80.10
55828;DHT22;41758;51.992;5.890;2023-05-07T12:04:44;25.80;80.40
55828;DHT22;41758;51.992;5.890;2023-05-07T12:07:14;25.80;80.50
55828;DHT22;41758;51.992;5.890;2023-05-07T12:09:41;25.80;80.60
55828;DHT22;41758;51.992;5.890;2023-05-07T12:12:07;25.80;80.70
55828;DHT22;41758;51.992;5.890;2023-05-07T12:14:32;25.90;80.80
55828;DHT22;41758;51.992;5.890;2023-05-07T12:17:02;25.90;80.90
55828;DHT22;41758;51.992;5.890;2023-05-07T12:19:30;25.90;80.80
55828;DHT22;41758;51.992;5.890;2023-05-07T12:21:56;25.90;80.80
55828;DHT22;41758;51.992;5.890;2023-05-07T12:24:22;26.00;80.70
55828;DHT22;41758;51.992;5.890;2023-05-07T12:26:48;26.00;80.60
55828;DHT22;41758;51.992;5.890;2023-05-07T12:29:14;26.00;80.50
55828;DHT22;41758;51.992;5.890;2023-05-07T12:31:43;25.90;80.40
55828;DHT22;41758;51.992;5.890;2023-05-07T12:34:11;26.00;80.40
55828;DHT22;41758;51.992;5.890;2023-05-07T12:36:38;25.90;80.30
55828;DHT22;41758;51.992;5.890;2023-05-07T12:39:05;25.90;80.30
55828;DHT22;41758;51.992;5.890;2023-05-07T12:41:36;25.90;80.20
55828;DHT22;41758;51.992;5.890;2023-05-07T12:44:17;25.90;80.30
55828;DHT22;41758;51.992;5.890;2023-05-07T12:46:42;25.90;80.20
55828;DHT22;41758;51.992;5.890;2023-05-07T12:49:08;25.90;80.30
55828;DHT22;41758;51.992;5.890;2023-05-07T12:51:35;25.90;80.20
55828;DHT22;41758;51.992;5.890;2023-05-07T12:54:01;25.90;80.10
55828;DHT22;41758;51.992;5.890;2023-05-07T12:56:26;25.90;80.10
55828;DHT22;41758;51.992;5.890;2023-05-07T12:58:57;25.80;80.00
55828;DHT22;41758;51.992;5.890;2023-05-07T13:01:29;25.80;79.90
55828;DHT22;41758;51.992;5.890;2023-05-07T13:03:55;25.80;79.80
55828;DHT22;41758;51.992;5.890;2023-05-07T13:06:21;25.80;79.70
55828;DHT22;41758;51.992;5.890;2023-05-07T13:08:47;25.70;79.70
55828;DHT22;41758;51.992;5.890;2023-05-07T13:11:13;25.70;79.70
55828;DHT22;41758;51.992;5.890;2023-05-07T13:13:40;25.70;79.70
55828;DHT22;41758;51.992;5.890;2023-05-07T13:16:08;25.60;79.60
55828;DHT22;41758;51.992;5.890;2023-05-07T13:18:36;25.60;79.60
55828;DHT22;41758;51.992;5.890;2023-05-07T13:21:02;25.60;79.50
55828;DHT22;41758;51.992;5.890;2023-05-07T13:23:28;25.60;79.50
55828;DHT22;41758;51.992;5.890;2023-05-07T13:25:55;25.60;79.50
55828;DHT22;41758;51.992;5.890;2023-05-07T13:28:21;25.60;79.50
55828;DHT22;41758;51.992;5.890;2023-05-07T13:30:47;25.60;79.50
55828;DHT22;41758;51.992;5.890;2023-05-07T13:33:13;25.60;79.40
55828;DHT22;41758;51.992;5.890;2023-05-07T13:35:40;25.60;79.40
55828;DHT22;41758;51.992;5.890;2023-05-07T13:38:06;25.60;79.40
55828;DHT22;41758;51.992;5.890;2023-05-07T13:40:32;25.60;79.40
55828;DHT22;41758;51.992;5.890;2023-05-07T13:42:58;25.60;79.30
55828;DHT22;41758;51.992;5.890;2023-05-07T13:45:26;25.60;79.20
55828;DHT22;41758;51.992;5.890;2023-05-07T13:47:52;25.60;79.20
55828;DHT22;41758;51.992;5.890;2023-05-07T13:50:18;25.60;79.20
55828;DHT22;41758;51.992;5.890;2023-05-07T13:52:44;25.60;79.20
55828;DHT22;41758;51.992;5.890;2023-05-07T13:55:23;25.50;79.10
55828;DHT22;41758;51.992;5.890;2023-05-07T13:57:55;25.60;79.10
55828;DHT22;41758;51.992;5.890;2023-05-07T14:00:21;25.60;79.20
55828;DHT22;41758;51.992;5.890;2023-05-07T14:02:47;25.60;79.30
55828;DHT22;41758;51.992;5.890;2023-05-07T14:05:13;25.70;79.40
55828;DHT22;41758;51.992;5.890;2023-05-07T14:07:39;25.80;79.50
55828;DHT22;41758;51.992;5.890;2023-05-07T14:10:05;25.80;79.50
55828;DHT22;41758;51.992;5.890;2023-05-07T14:12:32;25.90;79.40
55828;DHT22;41758;51.992;5.890;2023-05-07T14:14:57;25.90;79.30
55828;DHT22;41758;51.992;5.890;2023-05-07T14:17:23;25.90;79.20
55828;DHT22;41758;51.992;5.890;2023-05-07T14:19:50;25.90;79.10
55828;DHT22;41758;51.992;5.890;2023-05-07T14:22:16;26.00;79.00
55828;DHT22;41758;51.992;5.890;2023-05-07T14:24:42;26.00;78.90
55828;DHT22;41758;51.992;5.890;2023-05-07T14:27:07;26.00;78.70
55828;DHT22;41758;51.992;5.890;2023-05-07T14:29:33;26.00;78.60
55828;DHT22;41758;51.992;5.890;2023-05-07T14:32:01;25.90;78.60
55828;DHT22;41758;51.992;5.890;2023-05-07T14:34:27;25.90;78.50
55828;DHT22;41758;51.992;5.890;2023-05-07T14:36:53;25.90;78.40
55828;DHT22;41758;51.992;5.890;2023-05-07T14:39:18;25.90;78.20
55828;DHT22;41758;51.992;5.890;2023-05-07T14:41:44;25.80;78.10
55828;DHT22;41758;51.992;5.890;2023-05-07T14:44:10;25.80;78.00
55828;DHT22;41758;51.992;5.890;2023-05-07T14:46:35;25.70;78.00
55828;DHT22;41758;51.992;5.890;2023-05-07T14:49:02;25.70;77.90
55828;DHT22;41758;51.992;5.890;2023-05-07T14:51:28;25.60;77.80
55828;DHT22;41758;51.992;5.890;2023-05-07T14:53:54;25.60;77.80
55828;DHT22;41758;51.992;5.890;2023-05-07T14:56:20;25.50;77.80
55828;DHT22;41758;51.992;5.890;2023-05-07T14:58:47;25.50;77.80
55828;DHT22;41758;51.992;5.890;2023-05-07T15:01:13;25.40;77.80
55828;DHT22;41758;51.992;5.890;2023-05-07T15:03:40;25.30;77.80
55828;DHT22;41758;51.992;5.890;2023-05-07T15:06:05;25.30;77.80
55828;DHT22;41758;51.992;5.890;2023-05-07T15:08:31;25.30;77.70
55828;DHT22;41758;51.992;5.890;2023-05-07T15:10:57;25.20;77.70
55828;DHT22;41758;51.992;5.890;2023-05-07T15:13:22;25.20;77.70
55828;DHT22;41758;51.992;5.890;2023-05-07T15:15:48;25.10;77.70
55828;DHT22;41758;51.992;5.890;2023-05-07T15:18:15;25.10;77.70
55828;DHT22;41758;51.992;5.890;2023-05-07T15:20:41;25.10;77.60
55828;DHT22;41758;51.992;5.890;2023-05-07T15:23:07;25.10;77.60
55828;DHT22;41758;51.992;5.890;2023-05-07T15:25:43;25.00;77.50
55828;DHT22;41758;51.992;5.890;2023-05-07T15:28:08;25.00;77.50
55828;DHT22;41758;51.992;5.890;2023-05-07T15:30:34;24.90;77.50
55828;DHT22;41758;51.992;5.890;2023-05-07T15:33:01;24.90;77.60
55828;DHT22;41758;51.992;5.890;2023-05-07T15:35:27;24.90;77.50
55828;DHT22;41758;51.992;5.890;2023-05-07T15:37:53;24.80;77.50
55828;DHT22;41758;51.992;5.890;2023-05-07T15:40:19;24.80;77.30
55828;DHT22;41758;51.992;5.890;2023-05-07T15:42:45;24.80;77.20
55828;DHT22;41758;51.992;5.890;2023-05-07T15:45:11;24.70;77.00
55828;DHT22;41758;51.992;5.890;2023-05-07T15:47:37;24.60;76.70